sensor_id;sensor_type;location;lat;lon;timestamp;temperature;humidity
698;DHT22;331;48.414;9.938;2022-09-21T00:01:51;10.20;97.70
698;DHT22;331;48.414;9.938;2022-09-21T00:04:18;10.10;97.60
698;DHT22;331;48.414;9.938;2022-09-21T00:06:45;10.10;97.60
698;DHT22;331;48.414;9.938;2022-09-21T00:09:12;10.10;97.90
698;DHT22;331;48.414;9.938;2022-09-21T00:11:40;10.00;97.60
698;DHT22;331;48.414;9.938;2022-09-21T00:14:09;10.00;97.60
698;DHT22;331;48.414;9.938;2022-09-21T00:16:37;10.00;97.60
698;DHT22;331;48.414;9.938;2022-09-21T00:19:04;10.00;97.70
698;DHT22;331;48.414;9.938;2022-09-21T00:21:32;10.00;97.60
698;DHT22;331;48.414;9.938;2022-09-21T00:23:59;9.90;98.10
698;DHT22;331;48.414;9.938;2022-09-21T00:26:27;9.90;98.10
698;DHT22;331;48.414;9.938;2022-09-21T00:28:56;9.90;98.10
698;DHT22;331;48.414;9.938;2022-09-21T00:31:24;9.80;98.10
698;DHT22;331;48.414;9.938;2022-09-21T00:33:51;9.80;98.10
698;DHT22;331;48.414;9.938;2022-09-21T00:38:47;9.80;97.90
698;DHT22;331;48.414;9.938;2022-09-21T00:41:14;9.80;98.20
698;DHT22;331;48.414;9.938;2022-09-21T00:43:42;9.70;98.10
698;DHT22;331;48.414;9.938;2022-09-21T00:46:12;9.70;98.10
698;DHT22;331;48.414;9.938;2022-09-21T00:48:41;9.70;98.10
698;DHT22;331;48.414;9.938;2022-09-21T00:51:08;9.70;98.20
698;DHT22;331;48.414;9.938;2022-09-21T00:53:34;9.70;98.20
698;DHT22;331;48.414;9.938;2022-09-21T00:56:03;9.70;98.20
698;DHT22;331;48.414;9.938;2022-09-21T00:58:32;9.60;98.20
698;DHT22;331;48.414;9.938;2022-09-21T01:00:59;9.60;98.20
698;DHT22;331;48.414;9.938;2022-09-21T01:03:27;9.60;98.20
698;DHT22;331;48.414;9.938;2022-09-21T01:05:55;9.60;98.20
698;DHT22;331;48.414;9.938;2022-09-21T01:08:22;9.60;98.20
698;DHT22;331;48.414;9.938;2022-09-21T01:10:58;9.60;98.20
698;DHT22;331;48.414;9.938;2022-09-21T01:13:29;9.60;98.30
698;DHT22;331;48.414;9.938;2022-09-21T01:16:00;9.60;98.20
698;DHT22;331;48.414;9.938;2022-09-21T01:18:31;9.60;98.30
698;DHT22;331;48.414;9.938;2022-09-21T01:21:19;9.50;98.10
698;DHT22;331;48.414;9.938;2022-09-21T01:26:42;9.50;98.10
698;DHT22;331;48.414;9.938;2022-09-21T01:29:17;9.50;98.20
698;DHT22;331;48.414;9.938;2022-09-21T01:31:45;9.40;98.10
698;DHT22;331;48.414;9.938;2022-09-21T01:34:17;9.40;98.10
698;DHT22;331;48.414;9.938;2022-09-21T01:36:45;9.40;98.10
698;DHT22;331;48.414;9.938;2022-09-21T01:39:13;9.40;98.10
698;DHT22;331;48.414;9.938;2022-09-21T01:41:42;9.40;98.10
698;DHT22;331;48.414;9.938;2022-09-21T01:44:11;9.40;98.10
698;DHT22;331;48.414;9.938;2022-09-21T01:46:40;9.40;98.10
698;DHT22;331;48.414;9.938;2022-09-21T01:49:08;9.40;98.10
698;DHT22;331;48.414;9.938;2022-09-21T01:51:38;9.40;98.10
698;DHT22;331;48.414;9.938;2022-09-21T01:54:08;9.40;98.10
698;DHT22;331;48.414;9.938;2022-09-21T01:56:37;9.40;98.10
698;DHT22;331;48.414;9.938;2022-09-21T01:59:08;9.30;98.10
698;DHT22;331;48.414;9.938;2022-09-21T02:01:37;9.30;98.10
698;DHT22;331;48.414;9.938;2022-09-21T02:04:09;9.30;98.10
698;DHT22;331;48.414;9.938;2022-09-21T02:06:37;9.30;98.00
698;DHT22;331;48.414;9.938;2022-09-21T02:09:05;9.30;98.10
698;DHT22;331;48.414;9.938;2022-09-21T02:11:32;9.30;98.00
698;DHT22;331;48.414;9.938;2022-09-21T02:14:00;9.20;98.00
698;DHT22;331;48.414;9.938;2022-09-21T02:16:29;9.20;98.10
698;DHT22;331;48.414;9.938;2022-09-21T02:19:02;9.20;98.10
698;DHT22;331;48.414;9.938;2022-09-21T02:21:39;9.20;98.10
698;DHT22;331;48.414;9.938;2022-09-21T02:24:10;9.20;98.10
698;DHT22;331;48.414;9.938;2022-09-21T02:26:42;9.20;98.10
698;DHT22;331;48.414;9.938;2022-09-21T02:31:39;9.20;98.10
698;DHT22;331;48.414;9.938;2022-09-21T02:34:09;9.20;98.10
698;DHT22;331;48.414;9.938;2022-09-21T02:36:41;9.20;98.10
698;DHT22;331;48.414;9.938;2022-09-21T02:39:11;9.10;98.10
698;DHT22;331;48.414;9.938;2022-09-21T02:41:42;9.10;98.10
698;DHT22;331;48.414;9.938;2022-09-21T02:44:16;9.00;98.10
698;DHT22;331;48.414;9.938;2022-09-21T02:46:45;9.00;98.10
698;DHT22;331;48.414;9.938;2022-09-21T02:49:15;9.00;98.10
698;DHT22;331;48.414;9.938;2022-09-21T02:51:46;8.90;98.10
698;DHT22;331;48.414;9.938;2022-09-21T02:54:14;8.90;98.00
698;DHT22;331;48.414;9.938;2022-09-21T02:56:42;8.90;98.00
698;DHT22;331;48.414;9.938;2022-09-21T02:59:10;8.90;98.10
698;DHT22;331;48.414;9.938;2022-09-21T03:01:38;8.90;98.10
698;DHT22;331;48.414;9.938;2022-09-21T03:04:05;8.90;98.10
698;DHT22;331;48.414;9.938;2022-09-21T03:06:32;8.90;98.10
698;DHT22;331;48.414;9.938;2022-09-21T03:09:00;8.90;98.10
698;DHT22;331;48.414;9.938;2022-09-21T03:11:27;9.00;98.20
698;DHT22;331;48.414;9.938;2022-09-21T03:13:54;8.90;98.20
698;DHT22;331;48.414;9.938;2022-09-21T03:16:20;8.90;98.10
698;DHT22;331;48.414;9.938;2022-09-21T03:18:49;8.90;98.20
698;DHT22;331;48.414;9.938;2022-09-21T03:21:16;8.90;98.20
698;DHT22;331;48.414;9.938;2022-09-21T03:23:43;8.90;98.10
698;DHT22;331;48.414;9.938;2022-09-21T04:44:39;8.60;98.40
698;DHT22;331;48.414;9.938;2022-09-21T04:55:19;8.50;98.40
698;DHT22;331;48.414;9.938;2022-09-21T15:45:00;12.50;96.50
698;DHT22;331;48.414;9.938;2022-09-21T15:57:39;12.60;97.20
698;DHT22;331;48.414;9.938;2022-09-21T16:09:48;12.60;97.50
698;DHT22;331;48.414;9.938;2022-09-21T16:15:17;12.70;97.70
698;DHT22;331;48.414;9.938;2022-09-21T16:17:52;12.70;97.80
698;DHT22;331;48.414;9.938;2022-09-21T16:20:19;12.70;97.80
698;DHT22;331;48.414;9.938;2022-09-21T16:22:48;12.70;97.90
698;DHT22;331;48.414;9.938;2022-09-21T16:25:23;12.70;97.80
698;DHT22;331;48.414;9.938;2022-09-21T16:27:53;12.70;97.80
698;DHT22;331;48.414;9.938;2022-09-21T16:30:39;12.70;97.70
698;DHT22;331;48.414;9.938;2022-09-21T16:35:52;12.70;97.80
698;DHT22;331;48.414;9.938;2022-09-21T16:38:23;12.80;97.80
698;DHT22;331;48.414;9.938;2022-09-21T16:40:52;12.80;97.70
698;DHT22;331;48.414;9.938;2022-09-21T16:43:19;12.80;97.50
698;DHT22;331;48.414;9.938;2022-09-21T16:45:47;12.80;97.50
698;DHT22;331;48.414;9.938;2022-09-21T16:48:14;12.80;97.70
698;DHT22;331;48.414;9.938;2022-09-21T16:50:41;12.80;97.30
698;DHT22;331;48.414;9.938;2022-09-21T16:53:08;12.80;97.20
698;DHT22;331;48.414;9.938;2022-09-21T16:55:35;12.80;97.30
698;DHT22;331;48.414;9.938;2022-09-21T16:58:03;12.80;97.10
698;DHT22;331;48.414;9.938;2022-09-21T17:00:30;12.80;97.00
698;DHT22;331;48.414;9.938;2022-09-21T17:03:01;12.80;97.20
698;DHT22;331;48.414;9.938;2022-09-21T17:05:28;12.80;96.80
698;DHT22;331;48.414;9.938;2022-09-21T17:07:55;12.90;96.80
698;DHT22;331;48.414;9.938;2022-09-21T17:10:23;12.80;96.60
698;DHT22;331;48.414;9.938;2022-09-21T17:12:53;12.80;96.70
698;DHT22;331;48.414;9.938;2022-09-21T17:15:21;12.80;96.50
698;DHT22;331;48.414;9.938;2022-09-21T17:17:49;12.80;96.50
698;DHT22;331;48.414;9.938;2022-09-21T17:20:16;12.80;96.40
698;DHT22;331;48.414;9.938;2022-09-21T17:22:44;12.80;96.30
698;DHT22;331;48.414;9.938;2022-09-21T17:25:11;12.80;96.10
698;DHT22;331;48.414;9.938;2022-09-21T17:27:38;12.80;96.00
698;DHT22;331;48.414;9.938;2022-09-21T17:30:09;12.80;96.10
698;DHT22;331;48.414;9.938;2022-09-21T17:32:38;12.70;96.00
698;DHT22;331;48.414;9.938;2022-09-21T17:35:13;12.70;95.90
698;DHT22;331;48.414;9.938;2022-09-21T17:37:41;12.70;95.90
698;DHT22;331;48.414;9.938;2022-09-21T17:40:08;12.70;95.80
698;DHT22;331;48.414;9.938;2022-09-21T17:42:37;12.70;95.80
698;DHT22;331;48.414;9.938;2022-09-21T17:45:08;12.70;95.70
698;DHT22;331;48.414;9.938;2022-09-21T17:47:40;12.70;95.60
698;DHT22;331;48.414;9.938;2022-09-21T17:50:14;12.70;95.50
698;DHT22;331;48.414;9.938;2022-09-21T17:52:42;12.70;95.50
698;DHT22;331;48.414;9.938;2022-09-21T17:55:27;12.60;95.40
698;DHT22;331;48.414;9.938;2022-09-21T17:57:58;12.60;95.40
698;DHT22;331;48.414;9.938;2022-09-21T18:00:33;12.60;95.20
698;DHT22;331;48.414;9.938;2022-09-21T18:03:06;12.60;95.20
698;DHT22;331;48.414;9.938;2022-09-21T18:05:38;12.60;95.10
698;DHT22;331;48.414;9.938;2022-09-21T18:08:06;12.60;95.10
698;DHT22;331;48.414;9.938;2022-09-21T18:10:33;12.50;95.10
698;DHT22;331;48.414;9.938;2022-09-21T18:13:18;12.50;95.00
698;DHT22;331;48.414;9.938;2022-09-21T18:15:50;12.50;95.00
698;DHT22;331;48.414;9.938;2022-09-21T18:18:27;12.50;94.90
698;DHT22;331;48.414;9.938;2022-09-21T18:20:56;12.50;94.80
698;DHT22;331;48.414;9.938;2022-09-21T18:23:28;12.40;95.10
698;DHT22;331;48.414;9.938;2022-09-21T18:25:58;12.40;94.90
698;DHT22;331;48.414;9.938;2022-09-21T18:28:35;12.40;94.90
698;DHT22;331;48.414;9.938;2022-09-21T18:31:06;12.40;94.90
698;DHT22;331;48.414;9.938;2022-09-21T18:33:38;12.40;94.80
698;DHT22;331;48.414;9.938;2022-09-21T18:36:11;12.40;94.70
698;DHT22;331;48.414;9.938;2022-09-21T18:38:43;12.30;94.60
698;DHT22;331;48.414;9.938;2022-09-21T18:41:17;12.30;94.60
698;DHT22;331;48.414;9.938;2022-09-21T18:43:53;12.30;94.60
698;DHT22;331;48.414;9.938;2022-09-21T18:46:25;12.30;94.70
698;DHT22;331;48.414;9.938;2022-09-21T18:48:57;12.20;94.60
698;DHT22;331;48.414;9.938;2022-09-21T18:51:28;12.20;94.60
698;DHT22;331;48.414;9.938;2022-09-21T18:53:56;12.20;94.60
698;DHT22;331;48.414;9.938;2022-09-21T18:56:25;12.20;94.60
698;DHT22;331;48.414;9.938;2022-09-21T18:58:53;12.20;94.60
698;DHT22;331;48.414;9.938;2022-09-21T19:01:22;12.20;94.60
698;DHT22;331;48.414;9.938;2022-09-21T19:03:51;12.10;94.60
698;DHT22;331;48.414;9.938;2022-09-21T19:06:29;12.10;94.50
698;DHT22;331;48.414;9.938;2022-09-21T19:08:59;12.10;94.80
698;DHT22;331;48.414;9.938;2022-09-21T19:11:27;12.20;94.60
698;DHT22;331;48.414;9.938;2022-09-21T19:14:00;12.10;94.60
698;DHT22;331;48.414;9.938;2022-09-21T19:16:30;12.10;94.70
698;DHT22;331;48.414;9.938;2022-09-21T19:19:01;12.10;94.70
698;DHT22;331;48.414;9.938;2022-09-21T19:21:35;12.00;94.60
698;DHT22;331;48.414;9.938;2022-09-21T19:24:16;12.10;94.70
698;DHT22;331;48.414;9.938;2022-09-21T19:26:46;12.00;94.60
698;DHT22;331;48.414;9.938;2022-09-21T19:29:22;12.00;94.70
698;DHT22;331;48.414;9.938;2022-09-21T19:31:50;12.00;94.80
698;DHT22;331;48.414;9.938;2022-09-21T19:34:18;11.90;94.70
698;DHT22;331;48.414;9.938;2022-09-21T19:36:46;11.90;94.80
698;DHT22;331;48.414;9.938;2022-09-21T19:39:13;11.90;94.80
698;DHT22;331;48.414;9.938;2022-09-21T19:41:47;11.90;94.80
698;DHT22;331;48.414;9.938;2022-09-21T19:44:23;11.90;94.80
698;DHT22;331;48.414;9.938;2022-09-21T19:46:58;11.90;94.80
698;DHT22;331;48.414;9.938;2022-09-21T19:49:27;11.90;94.90
698;DHT22;331;48.414;9.938;2022-09-21T19:51:59;11.80;94.90
698;DHT22;331;48.414;9.938;2022-09-21T19:54:28;11.80;94.90
698;DHT22;331;48.414;9.938;2022-09-21T19:57:13;11.80;94.90
698;DHT22;331;48.414;9.938;2022-09-21T19:59:59;11.80;94.90
698;DHT22;331;48.414;9.938;2022-09-21T20:02:28;11.80;94.90
698;DHT22;331;48.414;9.938;2022-09-21T20:04:58;11.80;94.90
698;DHT22;331;48.414;9.938;2022-09-21T20:07:31;11.70;94.90
698;DHT22;331;48.414;9.938;2022-09-21T20:10:06;11.70;94.90
698;DHT22;331;48.414;9.938;2022-09-21T20:12:36;11.70;95.00
698;DHT22;331;48.414;9.938;2022-09-21T20:15:09;11.70;95.00
698;DHT22;331;48.414;9.938;2022-09-21T20:17:38;11.70;95.00
698;DHT22;331;48.414;9.938;2022-09-21T20:20:11;11.70;95.00
698;DHT22;331;48.414;9.938;2022-09-21T20:22:42;11.70;95.00
698;DHT22;331;48.414;9.938;2022-09-21T20:25:11;11.60;95.00
698;DHT22;331;48.414;9.938;2022-09-21T20:27:41;11.60;95.10
698;DHT22;331;48.414;9.938;2022-09-21T20:30:10;11.60;95.10
698;DHT22;331;48.414;9.938;2022-09-21T20:32:37;11.60;95.10
698;DHT22;331;48.414;9.938;2022-09-21T20:35:08;11.60;95.10
698;DHT22;331;48.414;9.938;2022-09-21T20:37:36;11.60;95.10
698;DHT22;331;48.414;9.938;2022-09-21T20:40:05;11.60;95.10
698;DHT22;331;48.414;9.938;2022-09-21T20:42:32;11.50;95.10
698;DHT22;331;48.414;9.938;2022-09-21T20:45:03;11.50;95.20
698;DHT22;331;48.414;9.938;2022-09-21T20:47:30;11.50;95.20
698;DHT22;331;48.414;9.938;2022-09-21T20:49:56;11.50;95.30
698;DHT22;331;48.414;9.938;2022-09-21T20:52:23;11.50;95.20
698;DHT22;331;48.414;9.938;2022-09-21T20:54:50;11.50;95.30
698;DHT22;331;48.414;9.938;2022-09-21T20:57:18;11.40;95.30
698;DHT22;331;48.414;9.938;2022-09-21T20:59:45;11.50;95.30
698;DHT22;331;48.414;9.938;2022-09-21T21:02:13;11.40;95.30
698;DHT22;331;48.414;9.938;2022-09-21T21:04:40;11.40;95.40
698;DHT22;331;48.414;9.938;2022-09-21T21:07:07;11.40;95.40
698;DHT22;331;48.414;9.938;2022-09-21T21:09:34;11.40;95.40
698;DHT22;331;48.414;9.938;2022-09-21T21:12:01;11.40;95.50
698;DHT22;331;48.414;9.938;2022-09-21T21:14:29;11.40;95.50
698;DHT22;331;48.414;9.938;2022-09-21T21:16:56;11.40;95.40
698;DHT22;331;48.414;9.938;2022-09-21T21:19:23;11.30;95.40
698;DHT22;331;48.414;9.938;2022-09-21T21:21:50;11.30;95.50
698;DHT22;331;48.414;9.938;2022-09-21T21:24:17;11.30;95.50
698;DHT22;331;48.414;9.938;2022-09-21T21:27:01;11.30;95.50
698;DHT22;331;48.414;9.938;2022-09-21T21:29:29;11.30;95.60
698;DHT22;331;48.414;9.938;2022-09-21T21:31:56;11.20;95.60
698;DHT22;331;48.414;9.938;2022-09-21T21:34:23;11.20;95.60
698;DHT22;331;48.414;9.938;2022-09-21T21:36:50;11.20;95.60
698;DHT22;331;48.414;9.938;2022-09-21T21:39:17;11.20;95.50
698;DHT22;331;48.414;9.938;2022-09-21T21:41:44;11.20;95.50
698;DHT22;331;48.414;9.938;2022-09-21T21:44:10;11.20;95.60
698;DHT22;331;48.414;9.938;2022-09-21T21:46:39;11.20;95.60
698;DHT22;331;48.414;9.938;2022-09-21T21:49:05;11.20;95.60
698;DHT22;331;48.414;9.938;2022-09-21T21:51:32;11.10;95.50
698;DHT22;331;48.414;9.938;2022-09-21T21:53:59;11.10;95.60
698;DHT22;331;48.414;9.938;2022-09-21T21:56:26;11.10;95.60
698;DHT22;331;48.414;9.938;2022-09-21T21:58:54;11.10;95.60
698;DHT22;331;48.414;9.938;2022-09-21T22:01:22;11.10;95.70
698;DHT22;331;48.414;9.938;2022-09-21T22:03:52;11.10;95.60
698;DHT22;331;48.414;9.938;2022-09-21T22:06:19;11.00;95.60
698;DHT22;331;48.414;9.938;2022-09-21T22:08:46;11.00;95.60
698;DHT22;331;48.414;9.938;2022-09-21T22:11:14;11.00;95.70
698;DHT22;331;48.414;9.938;2022-09-21T22:13:42;11.00;95.70
698;DHT22;331;48.414;9.938;2022-09-21T22:16:10;11.00;95.70
698;DHT22;331;48.414;9.938;2022-09-21T22:18:37;11.00;95.70
698;DHT22;331;48.414;9.938;2022-09-21T22:21:06;11.00;95.70
698;DHT22;331;48.414;9.938;2022-09-21T22:23:33;11.00;95.60
698;DHT22;331;48.414;9.938;2022-09-21T22:26:01;10.90;95.60
698;DHT22;331;48.414;9.938;2022-09-21T22:28:28;10.90;95.60
698;DHT22;331;48.414;9.938;2022-09-21T22:30:56;10.90;95.70
698;DHT22;331;48.414;9.938;2022-09-21T22:33:23;10.90;95.90
698;DHT22;331;48.414;9.938;2022-09-21T22:35:50;10.90;95.70
698;DHT22;331;48.414;9.938;2022-09-21T22:38:18;11.00;95.70
698;DHT22;331;48.414;9.938;2022-09-21T22:40:45;10.90;95.70
698;DHT22;331;48.414;9.938;2022-09-21T22:43:12;10.90;95.70
698;DHT22;331;48.414;9.938;2022-09-21T22:45:38;10.80;95.60
698;DHT22;331;48.414;9.938;2022-09-21T22:48:05;10.80;95.60
698;DHT22;331;48.414;9.938;2022-09-21T22:50:32;10.90;95.70
698;DHT22;331;48.414;9.938;2022-09-21T22:52:59;10.80;95.70
698;DHT22;331;48.414;9.938;2022-09-21T22:55:27;10.80;95.60
698;DHT22;331;48.414;9.938;2022-09-21T22:57:54;10.80;95.70
698;DHT22;331;48.414;9.938;2022-09-21T23:00:21;10.80;95.70
698;DHT22;331;48.414;9.938;2022-09-21T23:02:52;10.80;95.70
698;DHT22;331;48.414;9.938;2022-09-21T23:05:18;10.80;95.70
698;DHT22;331;48.414;9.938;2022-09-21T23:07:48;10.80;95.70
698;DHT22;331;48.414;9.938;2022-09-21T23:10:15;10.70;95.70
698;DHT22;331;48.414;9.938;2022-09-21T23:12:43;10.80;95.80
698;DHT22;331;48.414;9.938;2022-09-21T23:15:10;10.70;95.70
698;DHT22;331;48.414;9.938;2022-09-21T23:17:36;10.70;95.70
698;DHT22;331;48.414;9.938;2022-09-21T23:20:04;10.70;95.80
698;DHT22;331;48.414;9.938;2022-09-21T23:22:30;10.70;95.80
698;DHT22;331;48.414;9.938;2022-09-21T23:24:57;10.70;95.80
698;DHT22;331;48.414;9.938;2022-09-21T23:27:24;10.70;95.80
698;DHT22;331;48.414;9.938;2022-09-21T23:29:54;10.60;95.80
698;DHT22;331;48.414;9.938;2022-09-21T23:32:21;10.60;95.80
698;DHT22;331;48.414;9.938;2022-09-21T23:34:48;10.60;95.80
698;DHT22;331;48.414;9.938;2022-09-21T23:37:15;10.70;95.90
698;DHT22;331;48.414;9.938;2022-09-21T23:39:42;10.60;95.80
698;DHT22;331;48.414;9.938;2022-09-21T23:42:09;10.60;95.80
698;DHT22;331;48.414;9.938;2022-09-21T23:44:36;10.60;95.90
698;DHT22;331;48.414;9.938;2022-09-21T23:47:04;10.60;95.90
698;DHT22;331;48.414;9.938;2022-09-21T23:49:31;10.60;95.90
698;DHT22;331;48.414;9.938;2022-09-21T23:51:57;10.50;95.80
698;DHT22;331;48.414;9.938;2022-09-21T23:54:24;10.50;95.80
698;DHT22;331;48.414;9.938;2022-09-21T23:56:51;10.60;95.90
698;DHT22;331;48.414;9.938;2022-09-21T23:59:18;10.50;95.80
